sensor_id;sensor_type;location;lat;lon;timestamp;P1;durP1;ratioP1;P2;durP2;ratioP2
58615;SDS011;44385;51.992;4.206;2023-04-03T00:00:28;3.15;;;1.70;;
58615;SDS011;44385;51.992;4.206;2023-04-03T00:02:55;4.13;;;1.67;;
58615;SDS011;44385;51.992;4.206;2023-04-03T00:05:21;3.28;;;1.80;;
58615;SDS011;44385;51.992;4.206;2023-04-03T00:07:51;5.72;;;1.90;;
58615;SDS011;44385;51.992;4.206;2023-04-03T00:10:17;3.97;;;1.75;;
58615;SDS011;44385;51.992;4.206;2023-04-03T00:12:44;3.42;;;1.70;;
58615;SDS011;44385;51.992;4.206;2023-04-03T00:15:14;2.50;;;1.60;;
58615;SDS011;44385;51.992;4.206;2023-04-03T00:17:40;3.80;;;1.83;;
58615;SDS011;44385;51.992;4.206;2023-04-03T00:20:07;5.65;;;1.98;;
58615;SDS011;44385;51.992;4.206;2023-04-03T00:22:34;2.65;;;1.58;;
58615;SDS011;44385;51.992;4.206;2023-04-03T00:25:01;5.00;;;2.00;;
58615;SDS011;44385;51.992;4.206;2023-04-03T00:27:28;3.88;;;1.48;;
58615;SDS011;44385;51.992;4.206;2023-04-03T00:29:54;3.05;;;1.83;;
58615;SDS011;44385;51.992;4.206;2023-04-03T00:32:22;2.13;;;1.90;;
58615;SDS011;44385;51.992;4.206;2023-04-03T00:34:49;3.42;;;1.48;;
58615;SDS011;44385;51.992;4.206;2023-04-03T00:37:15;3.20;;;1.50;;
58615;SDS011;44385;51.992;4.206;2023-04-03T00:39:42;2.95;;;1.70;;
58615;SDS011;44385;51.992;4.206;2023-04-03T00:42:08;2.97;;;1.60;;
58615;SDS011;44385;51.992;4.206;2023-04-03T00:47:21;4.32;;;1.77;;
58615;SDS011;44385;51.992;4.206;2023-04-03T00:49:50;2.15;;;1.80;;
58615;SDS011;44385;51.992;4.206;2023-04-03T00:52:19;3.30;;;1.63;;
58615;SDS011;44385;51.992;4.206;2023-04-03T00:54:47;2.47;;;1.98;;
58615;SDS011;44385;51.992;4.206;2023-04-03T00:57:15;2.58;;;1.77;;
58615;SDS011;44385;51.992;4.206;2023-04-03T00:59:42;2.38;;;1.92;;
58615;SDS011;44385;51.992;4.206;2023-04-03T01:02:10;4.22;;;1.92;;
58615;SDS011;44385;51.992;4.206;2023-04-03T01:04:39;2.38;;;1.60;;
58615;SDS011;44385;51.992;4.206;2023-04-03T01:07:07;2.60;;;1.88;;
58615;SDS011;44385;51.992;4.206;2023-04-03T01:09:34;4.45;;;1.95;;
58615;SDS011;44385;51.992;4.206;2023-04-03T01:12:15;3.83;;;1.83;;
58615;SDS011;44385;51.992;4.206;2023-04-03T01:14:41;2.00;;;1.60;;
58615;SDS011;44385;51.992;4.206;2023-04-03T01:17:23;2.53;;;1.80;;
58615;SDS011;44385;51.992;4.206;2023-04-03T01:19:53;4.18;;;1.77;;
58615;SDS011;44385;51.992;4.206;2023-04-03T01:22:23;2.35;;;1.60;;
58615;SDS011;44385;51.992;4.206;2023-04-03T01:24:54;3.67;;;1.70;;
58615;SDS011;44385;51.992;4.206;2023-04-03T01:27:21;3.75;;;1.75;;
58615;SDS011;44385;51.992;4.206;2023-04-03T01:29:47;2.53;;;1.60;;
58615;SDS011;44385;51.992;4.206;2023-04-03T01:32:16;4.40;;;2.05;;
58615;SDS011;44385;51.992;4.206;2023-04-03T01:34:42;2.92;;;1.70;;
58615;SDS011;44385;51.992;4.206;2023-04-03T01:37:08;5.72;;;1.75;;
58615;SDS011;44385;51.992;4.206;2023-04-03T01:39:35;4.53;;;1.90;;
58615;SDS011;44385;51.992;4.206;2023-04-03T01:42:01;3.05;;;1.77;;
58615;SDS011;44385;51.992;4.206;2023-04-03T01:44:28;3.08;;;2.20;;
58615;SDS011;44385;51.992;4.206;2023-04-03T01:46:55;5.45;;;2.00;;
58615;SDS011;44385;51.992;4.206;2023-04-03T01:49:23;1.90;;;1.70;;
58615;SDS011;44385;51.992;4.206;2023-04-03T01:51:49;3.65;;;2.08;;
58615;SDS011;44385;51.992;4.206;2023-04-03T01:54:16;5.22;;;2.25;;
58615;SDS011;44385;51.992;4.206;2023-04-03T01:56:42;2.28;;;1.92;;
58615;SDS011;44385;51.992;4.206;2023-04-03T01:59:08;2.05;;;1.70;;
58615;SDS011;44385;51.992;4.206;2023-04-03T02:01:35;3.33;;;1.90;;
58615;SDS011;44385;51.992;4.206;2023-04-03T02:04:02;4.13;;;2.13;;
58615;SDS011;44385;51.992;4.206;2023-04-03T02:06:29;2.40;;;2.00;;
58615;SDS011;44385;51.992;4.206;2023-04-03T02:08:56;2.70;;;2.00;;
58615;SDS011;44385;51.992;4.206;2023-04-03T02:11:22;3.45;;;1.85;;
58615;SDS011;44385;51.992;4.206;2023-04-03T02:13:51;5.40;;;2.10;;
58615;SDS011;44385;51.992;4.206;2023-04-03T02:16:18;3.67;;;1.88;;
58615;SDS011;44385;51.992;4.206;2023-04-03T02:18:44;2.22;;;1.90;;
58615;SDS011;44385;51.992;4.206;2023-04-03T02:21:10;4.22;;;2.42;;
58615;SDS011;44385;51.992;4.206;2023-04-03T02:23:38;5.15;;;1.85;;
58615;SDS011;44385;51.992;4.206;2023-04-03T02:26:06;3.22;;;1.98;;
58615;SDS011;44385;51.992;4.206;2023-04-03T02:28:32;4.65;;;2.10;;
58615;SDS011;44385;51.992;4.206;2023-04-03T02:30:59;4.32;;;2.08;;
58615;SDS011;44385;51.992;4.206;2023-04-03T02:33:25;4.55;;;2.08;;
58615;SDS011;44385;51.992;4.206;2023-04-03T02:35:53;3.55;;;2.20;;
58615;SDS011;44385;51.992;4.206;2023-04-03T02:38:19;3.22;;;1.95;;
58615;SDS011;44385;51.992;4.206;2023-04-03T02:40:47;3.22;;;1.90;;
58615;SDS011;44385;51.992;4.206;2023-04-03T02:43:14;3.28;;;2.40;;
58615;SDS011;44385;51.992;4.206;2023-04-03T02:45:40;3.85;;;2.15;;
58615;SDS011;44385;51.992;4.206;2023-04-03T02:48:07;4.88;;;2.20;;
58615;SDS011;44385;51.992;4.206;2023-04-03T02:50:33;4.05;;;2.10;;
58615;SDS011;44385;51.992;4.206;2023-04-03T02:53:00;4.10;;;2.33;;
58615;SDS011;44385;51.992;4.206;2023-04-03T02:55:27;3.38;;;2.30;;
58615;SDS011;44385;51.992;4.206;2023-04-03T02:57:56;3.97;;;2.20;;
58615;SDS011;44385;51.992;4.206;2023-04-03T03:00:22;3.80;;;1.92;;
58615;SDS011;44385;51.992;4.206;2023-04-03T03:02:49;3.63;;;2.28;;
58615;SDS011;44385;51.992;4.206;2023-04-03T03:05:15;2.63;;;2.22;;
58615;SDS011;44385;51.992;4.206;2023-04-03T03:07:42;2.78;;;2.00;;
58615;SDS011;44385;51.992;4.206;2023-04-03T03:10:08;4.88;;;2.25;;
58615;SDS011;44385;51.992;4.206;2023-04-03T03:12:35;3.33;;;1.90;;
58615;SDS011;44385;51.992;4.206;2023-04-03T03:15:03;7.63;;;2.38;;
58615;SDS011;44385;51.992;4.206;2023-04-03T03:17:29;2.92;;;2.13;;
58615;SDS011;44385;51.992;4.206;2023-04-03T03:19:56;2.92;;;1.90;;
58615;SDS011;44385;51.992;4.206;2023-04-03T03:22:22;3.83;;;2.10;;
58615;SDS011;44385;51.992;4.206;2023-04-03T03:24:49;3.38;;;1.52;;
58615;SDS011;44385;51.992;4.206;2023-04-03T03:27:15;3.60;;;2.10;;
58615;SDS011;44385;51.992;4.206;2023-04-03T03:29:42;4.00;;;1.83;;
58615;SDS011;44385;51.992;4.206;2023-04-03T03:32:10;3.78;;;2.33;;
58615;SDS011;44385;51.992;4.206;2023-04-03T03:34:37;3.95;;;2.28;;
58615;SDS011;44385;51.992;4.206;2023-04-03T03:37:03;3.60;;;1.83;;
58615;SDS011;44385;51.992;4.206;2023-04-03T03:39:30;4.40;;;2.58;;
58615;SDS011;44385;51.992;4.206;2023-04-03T03:41:56;4.50;;;2.38;;
58615;SDS011;44385;51.992;4.206;2023-04-03T03:44:23;5.07;;;2.33;;
58615;SDS011;44385;51.992;4.206;2023-04-03T03:46:49;3.53;;;2.17;;
58615;SDS011;44385;51.992;4.206;2023-04-03T03:49:17;4.32;;;2.15;;
58615;SDS011;44385;51.992;4.206;2023-04-03T03:51:43;4.13;;;2.20;;
58615;SDS011;44385;51.992;4.206;2023-04-03T03:54:10;4.03;;;2.45;;
58615;SDS011;44385;51.992;4.206;2023-04-03T03:56:37;3.85;;;2.30;;
58615;SDS011;44385;51.992;4.206;2023-04-03T03:59:04;3.40;;;2.33;;
58615;SDS011;44385;51.992;4.206;2023-04-03T04:01:31;3.42;;;2.38;;
58615;SDS011;44385;51.992;4.206;2023-04-03T04:03:57;5.03;;;2.28;;
58615;SDS011;44385;51.992;4.206;2023-04-03T04:06:25;5.03;;;2.40;;
58615;SDS011;44385;51.992;4.206;2023-04-03T04:08:52;3.10;;;2.10;;
58615;SDS011;44385;51.992;4.206;2023-04-03T04:11:19;5.78;;;2.83;;
58615;SDS011;44385;51.992;4.206;2023-04-03T04:13:46;3.90;;;2.60;;
58615;SDS011;44385;51.992;4.206;2023-04-03T04:16:12;5.22;;;2.65;;
58615;SDS011;44385;51.992;4.206;2023-04-03T04:18:38;4.22;;;2.22;;
58615;SDS011;44385;51.992;4.206;2023-04-03T04:21:05;3.33;;;2.33;;
58615;SDS011;44385;51.992;4.206;2023-04-03T04:23:32;4.50;;;2.83;;
58615;SDS011;44385;51.992;4.206;2023-04-03T04:25:59;5.00;;;2.40;;
58615;SDS011;44385;51.992;4.206;2023-04-03T04:28:25;3.53;;;2.53;;
58615;SDS011;44385;51.992;4.206;2023-04-03T04:30:54;4.78;;;2.78;;
58615;SDS011;44385;51.992;4.206;2023-04-03T04:33:21;3.92;;;2.67;;
58615;SDS011;44385;51.992;4.206;2023-04-03T04:35:47;8.85;;;3.20;;
58615;SDS011;44385;51.992;4.206;2023-04-03T04:38:15;3.90;;;2.70;;
58615;SDS011;44385;51.992;4.206;2023-04-03T04:40:43;3.97;;;2.53;;
58615;SDS011;44385;51.992;4.206;2023-04-03T04:43:09;3.28;;;2.88;;
58615;SDS011;44385;51.992;4.206;2023-04-03T04:48:05;5.22;;;2.67;;
58615;SDS011;44385;51.992;4.206;2023-04-03T04:50:32;3.72;;;2.63;;
58615;SDS011;44385;51.992;4.206;2023-04-03T04:52:58;7.43;;;3.00;;
58615;SDS011;44385;51.992;4.206;2023-04-03T04:55:25;5.82;;;2.55;;
58615;SDS011;44385;51.992;4.206;2023-04-03T04:57:54;6.70;;;2.95;;
58615;SDS011;44385;51.992;4.206;2023-04-03T05:00:20;4.63;;;3.00;;
58615;SDS011;44385;51.992;4.206;2023-04-03T05:02:47;7.93;;;4.00;;
58615;SDS011;44385;51.992;4.206;2023-04-03T05:05:14;5.10;;;3.22;;
58615;SDS011;44385;51.992;4.206;2023-04-03T05:07:40;7.50;;;2.70;;
58615;SDS011;44385;51.992;4.206;2023-04-03T05:10:07;5.80;;;2.80;;
58615;SDS011;44385;51.992;4.206;2023-04-03T05:12:34;4.97;;;3.13;;
58615;SDS011;44385;51.992;4.206;2023-04-03T05:15:02;5.40;;;3.25;;
58615;SDS011;44385;51.992;4.206;2023-04-03T05:17:28;6.78;;;3.25;;
58615;SDS011;44385;51.992;4.206;2023-04-03T05:19:55;5.18;;;3.13;;
58615;SDS011;44385;51.992;4.206;2023-04-03T05:22:21;5.18;;;2.95;;
58615;SDS011;44385;51.992;4.206;2023-04-03T05:24:48;12.07;;;3.40;;
58615;SDS011;44385;51.992;4.206;2023-04-03T05:27:16;4.78;;;2.85;;
58615;SDS011;44385;51.992;4.206;2023-04-03T05:29:42;5.63;;;2.83;;
58615;SDS011;44385;51.992;4.206;2023-04-03T05:32:10;6.45;;;3.00;;
58615;SDS011;44385;51.992;4.206;2023-04-03T05:34:40;7.40;;;3.15;;
58615;SDS011;44385;51.992;4.206;2023-04-03T05:37:07;5.10;;;3.05;;
58615;SDS011;44385;51.992;4.206;2023-04-03T05:39:33;7.45;;;3.13;;
58615;SDS011;44385;51.992;4.206;2023-04-03T05:42:00;8.48;;;3.35;;
58615;SDS011;44385;51.992;4.206;2023-04-03T05:44:27;3.88;;;3.17;;
58615;SDS011;44385;51.992;4.206;2023-04-03T05:46:54;5.72;;;3.10;;
58615;SDS011;44385;51.992;4.206;2023-04-03T05:49:22;5.40;;;3.20;;
58615;SDS011;44385;51.992;4.206;2023-04-03T05:51:49;5.30;;;3.10;;
58615;SDS011;44385;51.992;4.206;2023-04-03T05:54:17;6.55;;;3.00;;
58615;SDS011;44385;51.992;4.206;2023-04-03T05:56:45;6.33;;;3.00;;
58615;SDS011;44385;51.992;4.206;2023-04-03T05:59:11;5.68;;;3.17;;
58615;SDS011;44385;51.992;4.206;2023-04-03T06:01:39;5.13;;;3.15;;
58615;SDS011;44385;51.992;4.206;2023-04-03T06:04:05;6.88;;;3.08;;
58615;SDS011;44385;51.992;4.206;2023-04-03T06:06:48;9.23;;;3.85;;
58615;SDS011;44385;51.992;4.206;2023-04-03T06:09:16;6.80;;;3.60;;
58615;SDS011;44385;51.992;4.206;2023-04-03T06:11:43;5.75;;;3.28;;
58615;SDS011;44385;51.992;4.206;2023-04-03T06:14:10;5.53;;;2.85;;
58615;SDS011;44385;51.992;4.206;2023-04-03T06:16:38;6.82;;;3.35;;
58615;SDS011;44385;51.992;4.206;2023-04-03T06:19:05;8.25;;;3.65;;
58615;SDS011;44385;51.992;4.206;2023-04-03T06:21:32;3.85;;;3.13;;
58615;SDS011;44385;51.992;4.206;2023-04-03T06:24:00;9.27;;;3.72;;
58615;SDS011;44385;51.992;4.206;2023-04-03T06:26:27;6.28;;;3.28;;
58615;SDS011;44385;51.992;4.206;2023-04-03T06:28:54;6.10;;;3.00;;
58615;SDS011;44385;51.992;4.206;2023-04-03T06:31:21;6.13;;;3.33;;
58615;SDS011;44385;51.992;4.206;2023-04-03T06:33:47;7.80;;;3.50;;
58615;SDS011;44385;51.992;4.206;2023-04-03T06:36:14;5.10;;;3.15;;
58615;SDS011;44385;51.992;4.206;2023-04-03T06:38:44;5.80;;;3.33;;
58615;SDS011;44385;51.992;4.206;2023-04-03T06:41:13;5.97;;;3.28;;
58615;SDS011;44385;51.992;4.206;2023-04-03T06:43:39;7.13;;;3.00;;
58615;SDS011;44385;51.992;4.206;2023-04-03T06:46:06;9.27;;;3.92;;
58615;SDS011;44385;51.992;4.206;2023-04-03T06:48:32;8.65;;;3.70;;
58615;SDS011;44385;51.992;4.206;2023-04-03T06:50:59;4.97;;;3.38;;
58615;SDS011;44385;51.992;4.206;2023-04-03T06:53:25;6.10;;;3.30;;
58615;SDS011;44385;51.992;4.206;2023-04-03T06:55:52;8.02;;;3.55;;
58615;SDS011;44385;51.992;4.206;2023-04-03T06:58:20;6.53;;;3.45;;
58615;SDS011;44385;51.992;4.206;2023-04-03T07:00:47;4.63;;;3.17;;
58615;SDS011;44385;51.992;4.206;2023-04-03T07:03:14;6.43;;;3.45;;
58615;SDS011;44385;51.992;4.206;2023-04-03T07:05:41;8.95;;;3.00;;
58615;SDS011;44385;51.992;4.206;2023-04-03T07:08:10;5.18;;;2.75;;
58615;SDS011;44385;51.992;4.206;2023-04-03T07:10:37;5.43;;;3.40;;
58615;SDS011;44385;51.992;4.206;2023-04-03T07:13:03;5.03;;;3.03;;
58615;SDS011;44385;51.992;4.206;2023-04-03T07:15:31;9.52;;;4.32;;
58615;SDS011;44385;51.992;4.206;2023-04-03T07:17:58;7.93;;;3.35;;
58615;SDS011;44385;51.992;4.206;2023-04-03T07:20:25;8.45;;;3.58;;
58615;SDS011;44385;51.992;4.206;2023-04-03T07:22:52;5.28;;;3.13;;
58615;SDS011;44385;51.992;4.206;2023-04-03T07:25:18;5.10;;;3.28;;
58615;SDS011;44385;51.992;4.206;2023-04-03T07:27:45;7.00;;;3.45;;
58615;SDS011;44385;51.992;4.206;2023-04-03T07:30:13;4.53;;;3.35;;
58615;SDS011;44385;51.992;4.206;2023-04-03T07:32:41;9.48;;;3.83;;
58615;SDS011;44385;51.992;4.206;2023-04-03T07:35:08;5.10;;;3.05;;
58615;SDS011;44385;51.992;4.206;2023-04-03T07:37:34;5.20;;;3.33;;
58615;SDS011;44385;51.992;4.206;2023-04-03T07:40:01;5.95;;;3.67;;
58615;SDS011;44385;51.992;4.206;2023-04-03T07:42:28;5.57;;;3.00;;
58615;SDS011;44385;51.992;4.206;2023-04-03T07:44:55;6.25;;;3.20;;
58615;SDS011;44385;51.992;4.206;2023-04-03T07:47:21;6.25;;;3.33;;
58615;SDS011;44385;51.992;4.206;2023-04-03T07:49:52;8.93;;;3.25;;
58615;SDS011;44385;51.992;4.206;2023-04-03T07:52:19;5.32;;;3.22;;
58615;SDS011;44385;51.992;4.206;2023-04-03T07:54:45;6.78;;;3.55;;
58615;SDS011;44385;51.992;4.206;2023-04-03T07:57:12;6.00;;;3.13;;
58615;SDS011;44385;51.992;4.206;2023-04-03T07:59:39;6.80;;;2.88;;
58615;SDS011;44385;51.992;4.206;2023-04-03T08:02:08;5.22;;;2.60;;
58615;SDS011;44385;51.992;4.206;2023-04-03T08:04:34;5.22;;;2.78;;
58615;SDS011;44385;51.992;4.206;2023-04-03T08:07:02;8.05;;;2.88;;
58615;SDS011;44385;51.992;4.206;2023-04-03T08:09:28;6.32;;;2.45;;
58615;SDS011;44385;51.992;4.206;2023-04-03T08:11:55;4.20;;;2.97;;
58615;SDS011;44385;51.992;4.206;2023-04-03T08:14:21;4.20;;;2.30;;
58615;SDS011;44385;51.992;4.206;2023-04-03T08:16:47;6.20;;;2.85;;
58615;SDS011;44385;51.992;4.206;2023-04-03T08:19:15;6.15;;;2.53;;
58615;SDS011;44385;51.992;4.206;2023-04-03T08:21:43;6.65;;;2.30;;
58615;SDS011;44385;51.992;4.206;2023-04-03T08:24:11;5.70;;;2.40;;
58615;SDS011;44385;51.992;4.206;2023-04-03T08:26:38;5.73;;;2.30;;
58615;SDS011;44385;51.992;4.206;2023-04-03T08:29:05;5.75;;;1.98;;
58615;SDS011;44385;51.992;4.206;2023-04-03T08:31:31;5.78;;;2.05;;
58615;SDS011;44385;51.992;4.206;2023-04-03T08:33:58;3.95;;;1.98;;
58615;SDS011;44385;51.992;4.206;2023-04-03T08:36:29;8.23;;;2.40;;
58615;SDS011;44385;51.992;4.206;2023-04-03T08:38:56;8.65;;;2.75;;
58615;SDS011;44385;51.992;4.206;2023-04-03T08:41:26;7.10;;;2.22;;
58615;SDS011;44385;51.992;4.206;2023-04-03T08:43:56;6.05;;;2.40;;
58615;SDS011;44385;51.992;4.206;2023-04-03T08:46:26;5.57;;;2.78;;
58615;SDS011;44385;51.992;4.206;2023-04-03T08:48:57;3.30;;;1.95;;
58615;SDS011;44385;51.992;4.206;2023-04-03T08:51:25;4.65;;;1.77;;
58615;SDS011;44385;51.992;4.206;2023-04-03T08:53:54;5.57;;;2.22;;
58615;SDS011;44385;51.992;4.206;2023-04-03T08:56:22;7.15;;;2.58;;
58615;SDS011;44385;51.992;4.206;2023-04-03T08:58:52;5.70;;;2.60;;
58615;SDS011;44385;51.992;4.206;2023-04-03T09:01:23;4.18;;;2.03;;
58615;SDS011;44385;51.992;4.206;2023-04-03T09:03:51;3.58;;;2.30;;
58615;SDS011;44385;51.992;4.206;2023-04-03T09:06:18;9.07;;;2.20;;
58615;SDS011;44385;51.992;4.206;2023-04-03T09:08:47;4.22;;;1.58;;
58615;SDS011;44385;51.992;4.206;2023-04-03T09:11:18;5.50;;;1.88;;
58615;SDS011;44385;51.992;4.206;2023-04-03T09:13:48;4.80;;;1.80;;
58615;SDS011;44385;51.992;4.206;2023-04-03T09:16:20;5.05;;;1.48;;
58615;SDS011;44385;51.992;4.206;2023-04-03T09:18:51;4.63;;;1.48;;
58615;SDS011;44385;51.992;4.206;2023-04-03T09:21:20;5.38;;;1.77;;
58615;SDS011;44385;51.992;4.206;2023-04-03T09:23:50;4.78;;;2.00;;
58615;SDS011;44385;51.992;4.206;2023-04-03T09:26:17;2.47;;;1.60;;
58615;SDS011;44385;51.992;4.206;2023-04-03T09:28:45;4.97;;;1.50;;
58615;SDS011;44385;51.992;4.206;2023-04-03T09:31:18;2.10;;;1.33;;
58615;SDS011;44385;51.992;4.206;2023-04-03T09:33:46;2.97;;;1.42;;
58615;SDS011;44385;51.992;4.206;2023-04-03T09:36:13;3.35;;;1.60;;
58615;SDS011;44385;51.992;4.206;2023-04-03T09:38:39;2.85;;;1.23;;
58615;SDS011;44385;51.992;4.206;2023-04-03T09:41:07;2.92;;;1.20;;
58615;SDS011;44385;51.992;4.206;2023-04-03T09:43:39;1.98;;;1.13;;
58615;SDS011;44385;51.992;4.206;2023-04-03T09:46:19;3.22;;;1.55;;
58615;SDS011;44385;51.992;4.206;2023-04-03T09:48:55;2.60;;;1.27;;
58615;SDS011;44385;51.992;4.206;2023-04-03T09:51:24;1.80;;;1.45;;
58615;SDS011;44385;51.992;4.206;2023-04-03T09:53:51;2.30;;;1.13;;
58615;SDS011;44385;51.992;4.206;2023-04-03T09:56:19;1.58;;;1.15;;
58615;SDS011;44385;51.992;4.206;2023-04-03T09:58:47;1.88;;;1.10;;
